Latest Coastal Weather Observations for Low Rocky Point

IDT60701

Issued at 10:03 am EST Wednesday 29 June 2016 (issued every 10 minutes, with the page automatically refreshed every 10 minutes)

About coastal observations | Map of coastal stations | Coastal observations for TAS | Marine services | Other Formats
Station Details ID: 097080 Name: LOW ROCKY POINT Lat: -42.98 Lon: 145.50 Height: 34.0 m
Data from the previous 72 hours. | See also: Recent months at Low Rocky Point
Date/Time
EST
Temp
°C
Wind Pressure Rain since
9am
mm
Weather Cloud Vis
km
Sea
Height
m
Swell
Dir  Spd
kts
Gust
kts
hPa Trend Height
m
Period
s
Dir
29/10:00am 12.1 NW 15 19 1019.0 - 0.0 - - - - - - -
29/09:30am 11.7 NNW 8 14 1018.9 - 0.0 - - - - - - -
29/09:00am 11.8 NNW 9 11 1019.2 - 13.6 - - - - - - -
29/08:30am 11.6 NW 15 19 1019.0 - 13.6 - - - - - - -
29/08:00am 12.3 WNW 13 15 1018.8 - 13.6 - - - - - - -
29/07:30am 12.2 WNW 15 17 1018.5 - 13.6 - - - - - - -
29/07:00am 12.0 WNW 15 18 1018.5 - 13.6 - - - - - - -
29/06:30am 11.9 WNW 15 19 1018.3 - 13.6 - - - - - - -
29/06:00am 11.9 WNW 14 17 1018.2 - 13.6 - - - - - - -
29/05:30am 11.8 WNW 15 17 1017.8 - 13.6 - - - - - - -
29/05:00am 11.6 WNW 15 17 1017.5 - 13.6 - - - - - - -
29/04:30am 11.6 WNW 13 15 1017.0 - 13.6 - - - - - - -
29/04:00am 10.9 WNW 11 13 1016.8 - 13.6 Recent precip. - - - - - -
29/03:30am 10.7 W 13 17 1016.8 - 13.2 - - - - - - -
29/03:00am 10.9 WNW 20 24 1016.5 - 12.0 Rain - - - - - -
29/02:30am 11.4 WNW 21 25 1016.4 - 11.4 - - - - - - -
29/02:00am 10.9 NW 25 32 1016.1 - 8.8 Rain - - - - - -
29/01:47am 11.5 NW 29 40 1015.4 - 7.6 - - - - - - -
29/01:30am 12.4 NW 31 38 1015.3 - 5.0 - - - - - - -
29/01:00am 12.2 NW 31 40 1015.3 - 4.6 Rain - - - - - -
29/12:30am 12.5 NW 30 41 1015.3 - 3.4 - - - - - - -
29/12:24am 12.5 NW 30 40 1015.3 - 3.2 - - - - - - -
29/12:00am 13.0 NW 29 37 1015.3 - 3.0 - - - - - - -
 
Date/Time
EST
Temp
°C
Wind Pressure Rain since
9am
mm
Weather Cloud Vis
km
Sea
Height
m
Swell
Dir  Spd
kts
Gust
kts
hPa Trend Height
m
Period
s
Dir
28/11:52pm 12.9 NW 29 39 1015.4 - 3.0 - - - - - - -
28/11:30pm 12.9 NW 31 38 1015.5 - 3.0 - - - - - - -
28/11:01pm 12.9 NW 31 41 1015.5 - 3.0 - - - - - - -
28/11:00pm 13.0 NW 32 41 1015.6 - 3.0 - - - - - - -
28/10:53pm 13.0 NW 31 41 1015.5 - 3.0 - - - - - - -
28/10:30pm 13.2 NW 31 37 1015.5 - 3.0 - - - - - - -
28/10:14pm 13.1 NW 30 40 1015.5 - 3.0 - - - - - - -
28/10:00pm 13.1 NW 33 39 1015.4 - 3.0 - - - - - - -
28/09:30pm 13.0 NW 31 39 1015.1 - 3.0 - - - - - - -
28/09:19pm 12.9 NW 31 41 1015.1 - 3.0 - - - - - - -
28/09:00pm 12.8 NW 30 37 1015.1 - 3.0 Recent precip. - - - - - -
28/08:38pm 12.6 NW 31 41 1014.7 - 2.8 - - - - - - -
28/08:30pm 12.8 NW 31 38 1014.8 - 2.6 - - - - - - -
28/08:09pm 13.1 NW 29 39 1014.8 - 2.4 - - - - - - -
28/08:00pm 13.2 NW 29 37 1015.0 - 2.4 - - - - - - -
28/07:52pm 13.1 NW 29 39 1014.9 - 2.4 - - - - - - -
28/07:30pm 12.8 NW 30 37 1014.7 - 2.4 - - - - - - -
28/07:00pm 12.6 NW 27 34 1014.7 - 2.4 Recent precip. - - - - - -
28/06:30pm 13.0 NW 27 34 1014.6 - 2.2 - - - - - - -
28/06:00pm 12.7 NW 28 34 1014.4 - 2.2 - - - - - - -
28/05:30pm 12.4 NW 26 31 1014.4 - 2.2 - - - - - - -
28/05:00pm 11.5 WNW 27 37 1014.4 - 2.2 Rain - - - - - -
28/04:59pm 12.1 WNW 26 37 1014.4 - 2.0 - - - - - - -
28/04:30pm 12.4 NW 28 35 1014.2 - 0.8 - - - - - - -
28/04:00pm 12.4 NW 27 37 1014.0 - 0.6 Recent precip. - - - - - -
28/03:55pm 12.3 NW 26 37 1014.0 - 0.6 - - - - - - -
28/03:30pm 12.5 WNW 26 33 1013.9 - 0.4 - - - - - - -
28/03:00pm 12.4 NW 28 37 1014.1 - 0.4 Recent precip. - - - - - -
28/02:51pm 12.4 NW 27 37 1013.9 - 0.4 - - - - - - -
28/02:30pm 12.8 NW 27 34 1013.8 - 0.4 - - - - - - -
28/02:00pm 13.2 WNW 25 31 1013.7 - 0.2 - - - - - - -
28/01:30pm 13.1 NW 26 34 1013.8 - 0.2 - - - - - - -
28/01:00pm 12.7 NW 26 35 1013.9 - 0.2 - - - - - - -
28/12:58pm 12.7 NW 25 35 1013.9 - 0.2 - - - - - - -
28/12:30pm 12.9 NW 29 37 1014.0 - 0.2 - - - - - - -
28/12:22pm 12.9 NW 27 37 1014.0 - 0.2 - - - - - - -
28/12:00pm 12.6 NW 25 30 1014.1 - 0.2 Recent precip. - - - - - -
28/11:30am 13.0 NW 27 34 1014.1 - 0.0 - - - - - - -
28/11:00am 12.7 NW 25 32 1014.1 - 0.0 - - - - - - -
28/10:30am 12.3 NW 27 34 1014.0 - 0.0 - - - - - - -
28/10:00am 12.6 NW 29 35 1013.8 - 0.0 - - - - - - -
28/09:44am 12.3 WNW 27 38 1013.7 - 0.0 - - - - - - -
28/09:30am 11.9 WNW 31 36 1013.6 - 0.0 - - - - - - -
28/09:00am 12.4 WNW 28 36 1013.4 - 6.2 - - - - - - -
28/08:30am 12.5 WNW 28 37 1013.1 - 6.2 - - - - - - -
28/08:00am 12.6 WNW 29 35 1012.8 - 6.2 - - - - - - -
28/07:30am 12.5 WNW 28 33 1012.6 - 6.2 - - - - - - -
28/07:00am 12.7 WNW 29 35 1012.2 - 6.2 - - - - - - -
28/06:45am 12.3 WNW 28 38 1012.0 - 6.2 - - - - - - -
28/06:30am 12.3 WNW 29 36 1011.9 - 6.2 - - - - - - -
28/06:00am 12.1 WNW 29 35 1011.5 - 6.2 Recent precip. - - - - - -
28/05:30am 12.4 WNW 27 33 1011.4 - 6.0 - - - - - - -
28/05:00am 12.2 WNW 29 36 1011.0 - 6.0 Recent precip. - - - - - -
28/04:38am 12.2 WNW 28 43 1010.9 - 5.6 - - - - - - -
28/04:30am 12.2 WNW 28 33 1011.0 - 5.6 - - - - - - -
28/04:02am 12.0 NW 29 39 1011.0 - 5.2 - - - - - - -
28/04:00am 12.1 NW 30 39 1011.0 - 5.2 - - - - - - -
28/03:39am 12.3 WNW 27 37 1011.0 - 5.2 - - - - - - -
28/03:30am 12.2 NW 28 36 1011.0 - 5.2 - - - - - - -
28/03:00am 12.5 NW 28 34 1011.0 - 5.2 - - - - - - -
28/02:30am 12.2 WNW 28 33 1011.0 - 5.2 - - - - - - -
28/02:17am 12.2 NW 27 37 1010.9 - 5.2 - - - - - - -
28/02:00am 12.1 NW 31 38 1010.8 - 5.2 Recent precip. - - - - - -
28/01:30am 12.3 NW 29 37 1010.5 - 4.8 - - - - - - -
28/01:00am 12.1 NW 29 37 1010.7 - 4.2 Rain - - - - - -
28/12:30am 11.9 NW 29 40 1010.6 - 4.0 - - - - - - -
28/12:21am 11.9 NW 29 40 1010.6 - 3.6 - - - - - - -
28/12:00am 12.1 NW 30 38 1010.7 - 3.4 Recent precip. - - - - - -
 
Date/Time
EST
Temp
°C
Wind Pressure Rain since
9am
mm
Weather Cloud Vis
km
Sea
Height
m
Swell
Dir  Spd
kts
Gust
kts
hPa Trend Height
m
Period
s
Dir
27/11:38pm 11.9 NW 29 39 1010.5 - 3.4 - - - - - - -
27/11:30pm 12.2 NW 30 38 1010.5 - 2.4 - - - - - - -
27/11:00pm 12.0 NW 29 38 1010.7 - 2.4 Recent precip. - - - - - -
27/10:30pm 11.8 NW 29 35 1010.9 - 2.4 - - - - - - -
27/10:00pm 11.6 NW 26 36 1010.9 - 1.8 Rain - - - - - -
27/09:58pm 11.6 NW 26 36 1010.9 - 1.4 - - - - - - -
27/09:30pm 11.1 NW 27 34 1011.1 - 1.4 - - - - - - -
27/09:05pm 12.1 NW 28 41 1011.0 - 0.6 - - - - - - -
27/09:00pm 12.1 NW 28 34 1011.1 - 0.6 - - - - - - -
27/08:30pm 11.6 NW 28 35 1011.2 - 0.6 - - - - - - -
27/08:00pm 11.5 NW 26 32 1011.3 - 0.6 Recent precip. - - - - - -
27/07:30pm 11.9 NW 27 35 1011.2 - 0.4 - - - - - - -
27/07:00pm 11.4 NW 27 35 1011.2 - 0.4 Recent precip. - - - - - -
27/06:43pm 10.6 NW 23 33 1011.3 - 0.4 - - - - - - -
27/06:30pm 11.2 NW 27 35 1011.2 - 0.0 - - - - - - -
27/06:00pm 11.5 NW 26 33 1011.1 - 0.0 - - - - - - -
27/05:46pm 11.9 NW 23 33 1011.0 - 0.0 - - - - - - -
27/05:30pm 11.7 NW 24 31 1011.0 - 0.0 - - - - - - -
27/05:00pm 11.7 NW 25 30 1010.8 - 0.0 - - - - - - -
27/04:30pm 11.6 NW 25 31 1010.7 - 0.0 - - - - - - -
27/04:00pm 11.8 NW 23 29 1010.7 - 0.0 - - - - - - -
27/03:30pm 11.9 NW 23 29 1010.7 - 0.0 - - - - - - -
27/03:00pm 11.1 NW 24 31 1010.9 - 0.0 - - - - - - -
27/02:30pm 11.8 NW 23 29 1010.9 - 0.0 - - - - - - -
27/02:00pm 12.0 NW 23 28 1010.9 - 0.0 - - - - - - -
27/01:30pm 11.7 NW 22 28 1011.1 - 0.0 - - - - - - -
27/01:03pm 11.8 NW 19 29 1011.2 - 0.0 - - - - - - -
27/01:00pm 11.6 NW 19 23 1011.2 - 0.0 - - - - - - -
27/12:32pm 11.1 WNW 19 30 1011.3 - 0.0 - - - - - - -
27/12:30pm 11.2 WNW 18 23 1011.4 - 0.0 - - - - - - -
27/12:00pm 10.4 WNW 22 29 1011.7 - 0.0 - - - - - - -
27/11:54am 11.2 NW 19 29 1011.6 - 0.0 - - - - - - -
27/11:30am 12.2 NW 17 21 1011.9 - 0.0 - - - - - - -
27/11:00am 11.8 WNW 16 19 1012.2 - 0.0 - - - - - - -
27/10:30am 11.0 WNW 16 19 1012.3 - 0.0 - - - - - - -
27/10:00am 11.1 WNW 15 19 1012.2 - 0.0 - - - - - - -
27/09:30am 10.6 WNW 16 21 1012.2 - 0.0 - - - - - - -
27/09:00am 10.4 WNW 17 21 1012.1 - 41.2 - - - - - - -
27/08:30am 10.4 WNW 20 23 1011.7 - 41.2 - - - - - - -
27/08:00am 10.3 WNW 17 21 1011.6 - 41.2 - - - - - - -
27/07:30am 10.1 WNW 20 24 1011.3 - 41.2 - - - - - - -
27/07:00am 10.3 WNW 19 22 1011.0 - 41.2 - - - - - - -
27/06:30am 10.4 WNW 17 21 1010.7 - 41.2 - - - - - - -
27/06:00am 10.4 W 17 21 1010.5 - 41.2 - - - - - - -
27/05:30am 10.2 WNW 15 19 1010.2 - 41.2 - - - - - - -
27/05:00am 10.2 W 17 21 1010.0 - 41.2 - - - - - - -
27/04:30am 10.4 W 16 19 1009.9 - 41.2 - - - - - - -
27/04:00am 10.3 W 16 19 1009.8 - 41.2 - - - - - - -
27/03:30am 10.3 WNW 17 19 1009.8 - 41.2 - - - - - - -
27/03:00am 10.6 W 15 20 1009.8 - 41.2 - - - - - - -
27/02:30am 10.3 WNW 17 20 1009.9 - 41.2 - - - - - - -
27/02:00am 10.4 W 16 19 1009.8 - 41.2 - - - - - - -
27/01:30am 10.2 W 16 19 1009.7 - 41.2 - - - - - - -
27/01:00am 10.3 W 15 19 1009.6 - 41.2 - - - - - - -
27/12:30am 10.3 W 15 18 1009.4 - 41.2 - - - - - - -
27/12:00am 10.2 W 15 18 1009.4 - 41.2 - - - - - - -
 
Date/Time
EST
Temp
°C
Wind Pressure Rain since
9am
mm
Weather Cloud Vis
km
Sea
Height
m
Swell
Dir  Spd
kts
Gust
kts
hPa Trend Height
m
Period
s
Dir
26/11:30pm 9.4 WNW 9 11 1009.5 - 41.2 - - - - - - -
26/11:00pm 8.9 WSW 15 22 1009.5 - 41.2 - - - - - - -
26/10:41pm 9.6 W 15 23 1009.3 - 41.2 - - - - - - -
26/10:30pm 9.9 W 10 13 1009.3 - 41.2 - - - - - - -
26/10:00pm 9.7 W 15 18 1009.2 - 41.2 Recent precip. - - - - - -
26/09:30pm 9.7 NNW 14 20 1009.3 - 40.6 - - - - - - -
26/09:00pm 9.2 N 16 21 1008.6 - 37.8 Rain - - - - - -
26/08:30pm 9.5 N 14 22 1008.8 - 37.4 - - - - - - -
26/08:01pm 9.3 NNW 15 25 1009.2 - 37.2 - - - - - - -
26/08:00pm 9.3 NNW 16 25 1009.2 - 37.2 Recent precip. - - - - - -
26/07:33pm 9.7 NNW 16 27 1009.2 - 36.8 - - - - - - -
26/07:30pm 9.7 NNW 14 22 1009.3 - 36.8 - - - - - - -
26/07:21pm 10.1 NW 15 20 1009.3 - 35.8 - - - - - - -
26/07:04pm 9.4 NW 21 29 1009.5 - 33.8 - - - - - - -
26/07:00pm 10.6 NNW 21 29 1009.3 - 33.4 Rain - - - - - -
26/06:30pm 10.3 NNW 16 23 1009.0 - 33.2 - - - - - - -
26/06:16pm 10.8 NW 30 41 1009.0 - 33.2 - - - - - - -
26/06:10pm 10.7 NW 29 41 1008.8 - 33.0 - - - - - - -
26/06:00pm 10.6 NW 27 38 1008.9 - 33.0 Recent precip. - - - - - -
26/05:56pm 10.2 NNW 23 38 1008.9 - 33.0 - - - - - - -
26/05:37pm 10.3 NNW 16 27 1008.9 - 29.6 - - - - - - -
26/05:30pm 10.4 NW 15 23 1009.1 - 29.4 - - - - - - -
26/05:00pm 9.7 N 12 17 1009.0 - 24.0 Rain - - - - - -
26/04:30pm 9.9 NNW 11 16 1009.2 - 22.6 - - - - - - -
26/04:00pm 9.9 N 15 20 1009.4 - 15.8 Rain - - - - - -
26/03:46pm 9.9 N 15 25 1009.2 - 14.0 - - - - - - -
26/03:30pm 10.1 NNW 17 26 1009.3 - 13.4 - - - - - - -
26/03:07pm 10.2 NNW 18 29 1009.2 - 11.6 - - - - - - -
26/03:00pm 10.2 NNW 18 25 1009.3 - 11.4 Rain - - - - - -
26/02:30pm 10.1 NNW 16 22 1009.6 - 11.0 - - - - - - -
26/02:00pm 10.2 N 15 22 1009.9 - 10.0 Rain - - - - - -
26/01:30pm 9.8 N 12 20 1010.4 - 7.8 - - - - - - -
26/01:00pm 10.0 N 14 18 1010.8 - 5.8 Rain - - - - - -
26/12:30pm 10.1 NNW 15 22 1011.6 - 4.4 - - - - - - -
26/12:00pm 10.9 NNW 17 22 1011.6 - 4.0 Recent precip. - - - - - -
26/11:30am 10.5 NNW 18 26 1012.2 - 4.0 - - - - - - -
26/11:23am 10.4 NNW 16 26 1012.3 - 4.0 - - - - - - -
26/11:00am 9.9 N 15 20 1012.8 - 3.6 Rain - - - - - -
26/10:30am 9.6 N 14 21 1013.0 - 3.4 - - - - - - -

Other Formats:

Comma delimited format used in spreadsheet applications
http://www.bom.gov.au/fwo/IDT60701/IDT60701.95961.axf

JavaScript Object Notation format (JSON) in row-major order
http://www.bom.gov.au/fwo/IDT60701/IDT60701.95961.json